Terminal Aerodrome Forecast
Issued by NWS Nashville, TN

Home | Current Version | Previous Version | Text Only | Print | Product List | Glossary On
Versions: 1 2 3 4 5 6 7 8 9 10 11 12 13 14 15 16 17 18
000
FTUS44 KOHX 221100 RRA
TAFBNA
TAF
KBNA 221141Z 2212/2312 16008KT P6SM OVC025
      TEMPO 2212/2214 BKN007 OVC025
     FM221600 15010G20KT P6SM OVC015
     FM222100 16012G22KT P6SM -RA OVC015
     FM230100 17012G22KT 4SM -RA BR OVC007=

USA.gov is the U.S. government's official web portal to all federal, state and local government web resources and services.